Time;durP1;ratioP1;P1;durP2;ratioP2;P2;SDS_P1;SDS_P2;PMS_P1;PMS_P2;Temp;Humidity;BMP_temperature;BMP_pressure;BME280_temperature;BME280_humidity;BME280_pressure;Samples;Min_cycle;Max_cycle;Signal;HPM_P1;HPM_P2
2023/09/21 00:01:15;;;;;;;2.53;1.65;;;;;;;;;;5067597;28;41589;-68
2023/09/21 00:03:45;;;;;;;2.38;1.27;;;;;;;;;;5066789;28;41242;-68
2023/09/21 00:06:13;;;;;;;2.05;1.45;;;;;;;;;;5067599;28;43321;-68
2023/09/21 00:08:43;;;;;;;1.73;1.45;;;;;;;;;;5067009;28;41078;-69
2023/09/21 00:11:12;;;;;;;2.15;1.27;;;;;;;;;;5061502;28;41129;-69
2023/09/21 00:13:41;;;;;;;1.60;1.33;;;;;;;;;;5066411;28;42815;-70
2023/09/21 00:16:10;;;;;;;2.90;1.52;;;;;;;;;;5065348;28;39114;-69
2023/09/21 00:18:39;;;;;;;2.28;1.60;;;;;;;;;;5065581;28;42258;-69
2023/09/21 00:21:07;;;;;;;2.88;1.48;;;;;;;;;;5066357;28;42271;-69
2023/09/21 00:23:36;;;;;;;2.20;1.30;;;;;;;;;;5065603;28;41175;-69
2023/09/21 00:26:04;;;;;;;4.90;1.80;;;;;;;;;;5065711;28;42114;-69
2023/09/21 00:28:32;;;;;;;1.83;1.17;;;;;;;;;;5066784;28;41861;-69
2023/09/21 00:31:02;;;;;;;1.52;1.23;;;;;;;;;;5064200;28;40654;-69
2023/09/21 00:33:30;;;;;;;2.20;1.50;;;;;;;;;;5066102;28;43072;-69
2023/09/21 00:35:59;;;;;;;2.10;1.50;;;;;;;;;;5066235;28;40384;-69
2023/09/21 00:38:27;;;;;;;1.95;1.35;;;;;;;;;;5065292;28;41776;-69
2023/09/21 00:40:56;;;;;;;2.00;1.17;;;;;;;;;;5099488;28;40769;-69
2023/09/21 00:43:25;;;;;;;2.97;1.25;;;;;;;;;;5067177;28;42010;-69
2023/09/21 00:45:53;;;;;;;1.95;1.15;;;;;;;;;;5067104;28;43021;-69
2023/09/21 00:48:25;;;;;;;2.42;1.38;;;;;;;;;;5066890;28;41375;-69
2023/09/21 00:50:54;;;;;;;1.85;1.30;;;;;;;;;;5063435;28;41752;-69
2023/09/21 00:53:23;;;;;;;3.08;1.42;;;;;;;;;;5066379;28;43032;-69
2023/09/21 00:55:51;;;;;;;2.50;1.45;;;;;;;;;;5066705;28;40018;-69
2023/09/21 00:58:19;;;;;;;1.83;1.30;;;;;;;;;;5066476;28;41424;-69
2023/09/21 01:00:47;;;;;;;2.05;1.17;;;;;;;;;;5066051;28;42228;-69
2023/09/21 01:03:15;;;;;;;3.50;1.40;;;;;;;;;;5066463;28;39858;-69
2023/09/21 01:05:46;;;;;;;1.77;0.90;;;;;;;;;;5069451;28;42169;-69
2023/09/21 01:08:17;;;;;;;1.60;1.30;;;;;;;;;;5069089;28;40381;-69
2023/09/21 01:10:48;;;;;;;2.17;1.42;;;;;;;;;;5066108;28;40071;-69
2023/09/21 01:13:17;;;;;;;2.03;1.30;;;;;;;;;;5063130;28;43190;-69
2023/09/21 01:15:46;;;;;;;1.58;1.08;;;;;;;;;;5066911;28;39199;-69
2023/09/21 01:18:16;;;;;;;1.83;1.27;;;;;;;;;;5068908;28;42238;-69
2023/09/21 01:20:50;;;;;;;2.17;1.20;;;;;;;;;;5093857;28;40614;-69
2023/09/21 01:23:19;;;;;;;1.55;1.13;;;;;;;;;;5065535;28;41389;-69
2023/09/21 01:25:50;;;;;;;1.83;1.13;;;;;;;;;;5069643;28;41841;-70
2023/09/21 01:28:19;;;;;;;1.80;1.25;;;;;;;;;;5066803;28;39804;-69
2023/09/21 01:30:48;;;;;;;2.60;1.30;;;;;;;;;;5069179;28;41786;-69
2023/09/21 01:33:17;;;;;;;2.13;1.25;;;;;;;;;;5067430;28;40435;-69
2023/09/21 01:35:46;;;;;;;2.15;1.27;;;;;;;;;;5067696;28;20645;-69
2023/09/21 01:38:14;;;;;;;1.70;1.40;;;;;;;;;;5068621;28;41312;-69
2023/09/21 01:40:42;;;;;;;1.33;1.23;;;;;;;;;;5067099;28;40825;-69
2023/09/21 01:43:16;;;;;;;1.60;1.27;;;;;;;;;;5069119;28;41859;-69
2023/09/21 01:45:48;;;;;;;1.50;1.17;;;;;;;;;;5067857;28;42269;-69
2023/09/21 01:48:18;;;;;;;2.05;1.48;;;;;;;;;;5064533;28;42834;-69
2023/09/21 01:50:47;;;;;;;2.00;1.30;;;;;;;;;;5068752;28;41842;-69
2023/09/21 01:53:16;;;;;;;1.05;0.93;;;;;;;;;;5068236;28;41694;-69
2023/09/21 01:55:44;;;;;;;1.60;1.08;;;;;;;;;;5067214;28;38695;-69
2023/09/21 01:58:14;;;;;;;2.40;1.20;;;;;;;;;;5068463;28;40321;-69
2023/09/21 02:00:43;;;;;;;2.55;1.20;;;;;;;;;;5068936;28;41751;-69
2023/09/21 02:03:12;;;;;;;2.25;1.17;;;;;;;;;;5069031;28;40883;-69
2023/09/21 02:05:41;;;;;;;1.23;1.05;;;;;;;;;;5067584;28;40819;-69
2023/09/21 02:08:10;;;;;;;2.05;1.10;;;;;;;;;;5069589;28;43048;-69
2023/09/21 02:10:38;;;;;;;2.35;1.23;;;;;;;;;;5058567;28;40558;-69
2023/09/21 02:13:06;;;;;;;1.45;1.10;;;;;;;;;;5061992;28;42761;-69
2023/09/21 02:15:37;;;;;;;1.50;1.08;;;;;;;;;;5067481;28;41801;-69
2023/09/21 02:18:05;;;;;;;1.33;1.02;;;;;;;;;;5066070;28;41631;-69
2023/09/21 02:20:35;;;;;;;1.50;1.20;;;;;;;;;;5067391;28;43081;-69
2023/09/21 02:23:03;;;;;;;2.17;1.10;;;;;;;;;;5067604;28;42123;-69
2023/09/21 02:25:32;;;;;;;1.25;1.10;;;;;;;;;;5066200;28;40530;-70
2023/09/21 02:28:00;;;;;;;1.45;1.30;;;;;;;;;;5067845;28;40482;-69
2023/09/21 02:30:29;;;;;;;1.33;1.20;;;;;;;;;;5067227;28;40267;-69
2023/09/21 02:32:59;;;;;;;1.90;1.20;;;;;;;;;;5066686;28;40862;-69
2023/09/21 02:35:27;;;;;;;1.55;1.20;;;;;;;;;;5066793;28;38217;-69
2023/09/21 02:37:56;;;;;;;1.73;1.10;;;;;;;;;;5067597;28;41318;-69
2023/09/21 02:40:24;;;;;;;1.40;1.25;;;;;;;;;;5067758;28;40018;-69
2023/09/21 02:42:52;;;;;;;1.98;1.10;;;;;;;;;;5068676;28;40907;-69
2023/09/21 02:45:21;;;;;;;1.27;0.93;;;;;;;;;;5066742;28;40385;-69
2023/09/21 02:47:51;;;;;;;1.63;1.20;;;;;;;;;;5066913;28;42231;-68
2023/09/21 02:50:22;;;;;;;1.40;1.00;;;;;;;;;;5067291;28;39377;-69
2023/09/21 02:52:52;;;;;;;1.38;0.93;;;;;;;;;;5067556;28;40602;-69
2023/09/21 02:55:21;;;;;;;1.58;1.10;;;;;;;;;;5067179;28;39273;-69
2023/09/21 02:57:54;;;;;;;1.65;1.05;;;;;;;;;;5067307;28;40462;-69
2023/09/21 03:00:27;;;;;;;1.75;1.10;;;;;;;;;;5066608;28;42130;-69
2023/09/21 03:02:56;;;;;;;1.25;0.82;;;;;;;;;;5067469;28;39140;-69
2023/09/21 03:05:27;;;;;;;2.05;1.20;;;;;;;;;;5066227;28;40061;-69
2023/09/21 03:07:55;;;;;;;1.20;1.00;;;;;;;;;;5068468;28;41821;-69
2023/09/21 03:10:25;;;;;;;1.55;1.30;;;;;;;;;;5066961;28;39291;-69
2023/09/21 03:12:53;;;;;;;1.83;1.10;;;;;;;;;;5066696;28;40200;-69
2023/09/21 03:15:23;;;;;;;1.63;1.10;;;;;;;;;;5067149;28;40369;-69
2023/09/21 03:17:53;;;;;;;0.93;0.80;;;;;;;;;;5066855;28;41509;-69
2023/09/21 03:20:28;;;;;;;1.80;0.80;;;;;;;;;;5065582;28;40572;-69
2023/09/21 03:22:58;;;;;;;1.20;0.82;;;;;;;;;;5067219;28;39755;-69
2023/09/21 03:25:27;;;;;;;1.13;1.00;;;;;;;;;;5066481;28;40808;-69
2023/09/21 03:27:56;;;;;;;1.33;0.98;;;;;;;;;;5066967;28;43073;-69
2023/09/21 03:30:24;;;;;;;1.42;1.13;;;;;;;;;;5065934;28;38859;-69
2023/09/21 03:32:53;;;;;;;1.92;1.05;;;;;;;;;;5066641;28;40195;-69
2023/09/21 03:35:26;;;;;;;1.50;1.00;;;;;;;;;;5067684;28;41947;-69
2023/09/21 03:37:56;;;;;;;1.00;0.90;;;;;;;;;;5067253;28;38310;-69
2023/09/21 03:40:25;;;;;;;1.23;1.00;;;;;;;;;;5067338;28;43110;-69
2023/09/21 03:42:54;;;;;;;2.45;1.20;;;;;;;;;;5100395;28;39636;-69
2023/09/21 03:45:24;;;;;;;2.15;1.00;;;;;;;;;;5065481;28;40402;-69
2023/09/21 03:47:52;;;;;;;1.00;0.90;;;;;;;;;;5065345;28;41883;-69
2023/09/21 03:50:21;;;;;;;1.48;0.93;;;;;;;;;;5066963;28;39349;-69
2023/09/21 03:52:50;;;;;;;0.98;0.90;;;;;;;;;;5067580;28;44192;-69
2023/09/21 03:55:19;;;;;;;2.42;1.35;;;;;;;;;;5065791;28;41683;-69
2023/09/21 03:57:48;;;;;;;1.38;0.90;;;;;;;;;;5065563;28;39461;-69
2023/09/21 04:00:29;;;;;;;1.30;1.08;;;;;;;;;;5067088;28;40996;-69
2023/09/21 04:02:59;;;;;;;1.10;0.80;;;;;;;;;;5065620;28;39865;-69
2023/09/21 04:05:30;;;;;;;0.93;0.80;;;;;;;;;;5066132;28;41486;-69
2023/09/21 04:07:58;;;;;;;1.42;1.10;;;;;;;;;;5066351;28;40591;-69
2023/09/21 04:10:27;;;;;;;1.10;0.93;;;;;;;;;;5064387;28;41582;-69
2023/09/21 04:12:56;;;;;;;1.00;0.90;;;;;;;;;;5057604;28;42185;-69
2023/09/21 04:15:24;;;;;;;0.95;0.80;;;;;;;;;;5065859;28;41789;-69
2023/09/21 04:17:53;;;;;;;1.80;0.98;;;;;;;;;;5064793;28;38924;-69
2023/09/21 04:20:21;;;;;;;1.00;0.90;;;;;;;;;;5067404;28;42697;-69
2023/09/21 04:22:50;;;;;;;1.15;0.90;;;;;;;;;;5066227;28;41914;-69
2023/09/21 04:25:18;;;;;;;1.05;0.95;;;;;;;;;;5064938;28;41131;-69
2023/09/21 04:27:47;;;;;;;1.45;1.10;;;;;;;;;;5065227;28;41113;-69
2023/09/21 04:30:17;;;;;;;0.70;0.70;;;;;;;;;;5065212;28;40014;-69
2023/09/21 04:32:46;;;;;;;2.08;1.10;;;;;;;;;;5066112;28;41030;-69
2023/09/21 04:35:15;;;;;;;1.38;1.08;;;;;;;;;;5065323;28;41455;-69
2023/09/21 04:37:44;;;;;;;1.50;1.00;;;;;;;;;;5065427;28;39800;-69
2023/09/21 04:40:12;;;;;;;1.00;0.88;;;;;;;;;;5069106;28;40370;-69
2023/09/21 04:42:43;;;;;;;1.33;1.17;;;;;;;;;;5064029;28;41111;-69
2023/09/21 04:45:12;;;;;;;1.38;1.13;;;;;;;;;;5069197;28;40197;-69
2023/09/21 04:47:43;;;;;;;1.10;1.00;;;;;;;;;;5068684;28;40737;-69
2023/09/21 04:50:11;;;;;;;1.48;1.02;;;;;;;;;;5069660;28;39943;-69
2023/09/21 04:52:39;;;;;;;1.77;1.10;;;;;;;;;;5068051;28;41588;-69
2023/09/21 04:55:09;;;;;;;1.50;0.90;;;;;;;;;;5069245;28;40491;-69
2023/09/21 04:57:37;;;;;;;1.50;1.13;;;;;;;;;;5069872;28;40310;-69
2023/09/21 05:00:07;;;;;;;1.10;0.90;;;;;;;;;;5069097;28;39757;-69
2023/09/21 05:02:35;;;;;;;1.67;0.90;;;;;;;;;;5070678;28;43072;-69
2023/09/21 05:05:05;;;;;;;1.42;1.25;;;;;;;;;;5065334;28;39114;-69
2023/09/21 05:07:35;;;;;;;2.20;1.02;;;;;;;;;;5068647;28;40604;-69
2023/09/21 05:10:05;;;;;;;1.10;1.00;;;;;;;;;;5068769;28;39027;-69
2023/09/21 05:12:33;;;;;;;1.67;1.00;;;;;;;;;;5067433;28;40474;-69
2023/09/21 05:15:06;;;;;;;1.40;0.95;;;;;;;;;;5070179;28;43227;-69
2023/09/21 05:17:36;;;;;;;1.80;1.30;;;;;;;;;;5066161;28;41555;-69
2023/09/21 05:20:06;;;;;;;1.20;0.98;;;;;;;;;;5069098;28;41648;-69
2023/09/21 05:22:35;;;;;;;1.10;0.80;;;;;;;;;;5065217;28;41494;-69
2023/09/21 05:25:03;;;;;;;1.13;0.88;;;;;;;;;;5069186;28;40966;-69
2023/09/21 05:27:31;;;;;;;1.30;1.20;;;;;;;;;;5069317;28;42644;-69
2023/09/21 05:30:00;;;;;;;1.08;0.98;;;;;;;;;;5069835;28;40968;-69
2023/09/21 05:32:32;;;;;;;1.23;0.90;;;;;;;;;;5064902;28;43033;-69
2023/09/21 05:35:06;;;;;;;1.42;0.90;;;;;;;;;;5101227;28;41828;-69
2023/09/21 05:37:35;;;;;;;3.28;0.90;;;;;;;;;;5065121;28;39922;-70
2023/09/21 05:40:05;;;;;;;2.55;1.25;;;;;;;;;;5068296;28;41720;-69
2023/09/21 05:42:34;;;;;;;2.80;1.23;;;;;;;;;;5065609;28;42392;-69
2023/09/21 05:45:02;;;;;;;3.42;1.52;;;;;;;;;;5066783;28;41101;-69
2023/09/21 05:47:31;;;;;;;2.17;1.55;;;;;;;;;;5060596;28;41698;-69
2023/09/21 05:50:00;;;;;;;6.85;1.90;;;;;;;;;;5068840;28;43167;-69
2023/09/21 05:52:32;;;;;;;4.75;1.60;;;;;;;;;;5068820;28;41837;-69
2023/09/21 05:55:00;;;;;;;5.40;1.67;;;;;;;;;;5066284;28;42293;-69
2023/09/21 05:57:28;;;;;;;3.35;1.70;;;;;;;;;;5068833;28;41276;-69
2023/09/21 05:59:57;;;;;;;8.27;2.15;;;;;;;;;;5068806;28;41838;-69
2023/09/21 06:02:25;;;;;;;2.15;1.88;;;;;;;;;;5063346;28;43088;-68
2023/09/21 06:04:53;;;;;;;4.72;1.98;;;;;;;;;;5065389;28;40372;-68
2023/09/21 06:07:22;;;;;;;4.65;2.03;;;;;;;;;;5068877;28;41471;-68
2023/09/21 06:09:51;;;;;;;5.63;1.70;;;;;;;;;;5068120;28;41655;-68
2023/09/21 06:12:19;;;;;;;4.05;1.85;;;;;;;;;;5068614;28;40607;-68
2023/09/21 06:14:50;;;;;;;5.68;2.03;;;;;;;;;;5068569;28;42922;-69
2023/09/21 06:17:18;;;;;;;5.25;2.00;;;;;;;;;;5063782;28;40734;-69
2023/09/21 06:19:46;;;;;;;3.53;2.08;;;;;;;;;;5069321;28;41627;-69
2023/09/21 06:22:14;;;;;;;3.97;1.98;;;;;;;;;;5069422;28;42649;-69
2023/09/21 06:24:43;;;;;;;4.88;2.13;;;;;;;;;;5068838;28;40677;-69
2023/09/21 06:27:13;;;;;;;4.13;2.40;;;;;;;;;;5069506;28;42609;-70
2023/09/21 06:29:41;;;;;;;4.15;2.38;;;;;;;;;;5068236;28;41268;-69
2023/09/21 06:32:11;;;;;;;3.42;2.28;;;;;;;;;;5068992;28;40103;-69
2023/09/21 06:34:42;;;;;;;7.57;2.00;;;;;;;;;;5069264;28;41918;-69
2023/09/21 06:37:11;;;;;;;4.07;2.45;;;;;;;;;;5068613;28;40107;-69
2023/09/21 06:39:39;;;;;;;2.97;2.13;;;;;;;;;;5068813;28;42663;-69
2023/09/21 06:42:07;;;;;;;5.13;2.20;;;;;;;;;;5070141;28;40438;-69
2023/09/21 06:44:37;;;;;;;4.35;2.22;;;;;;;;;;5067110;28;40091;-70
2023/09/21 06:47:05;;;;;;;5.97;2.20;;;;;;;;;;5069623;28;42219;-69
2023/09/21 06:49:34;;;;;;;10.00;2.28;;;;;;;;;;5068704;28;42013;-68
2023/09/21 06:52:03;;;;;;;7.53;2.30;;;;;;;;;;5068791;28;40752;-70
2023/09/21 06:54:32;;;;;;;10.38;2.50;;;;;;;;;;5068741;28;40740;-70
2023/09/21 06:57:04;;;;;;;15.18;2.72;;;;;;;;;;5069469;28;33931;-69
2023/09/21 06:59:34;;;;;;;8.77;2.40;;;;;;;;;;5067573;28;42208;-70
2023/09/21 07:02:04;;;;;;;9.73;2.40;;;;;;;;;;5065635;28;42173;-69
2023/09/21 07:04:33;;;;;;;4.53;2.22;;;;;;;;;;5046914;28;41001;-69
2023/09/21 07:07:05;;;;;;;6.03;1.92;;;;;;;;;;5060539;28;42633;-69
2023/09/21 07:09:34;;;;;;;6.40;2.20;;;;;;;;;;5062301;28;43210;-69
2023/09/21 07:12:02;;;;;;;7.68;2.55;;;;;;;;;;5063103;28;40871;-70
2023/09/21 07:14:32;;;;;;;2.72;1.75;;;;;;;;;;5065710;28;42039;-72
2023/09/21 07:17:01;;;;;;;3.75;1.98;;;;;;;;;;5064722;28;42417;-71
2023/09/21 07:19:30;;;;;;;3.40;1.90;;;;;;;;;;5056039;28;42826;-70
2023/09/21 07:21:58;;;;;;;6.82;2.85;;;;;;;;;;5060428;28;43279;-70
2023/09/21 07:24:26;;;;;;;9.20;3.15;;;;;;;;;;5065253;28;41386;-69
2023/09/21 07:26:54;;;;;;;9.32;2.83;;;;;;;;;;5064900;28;42551;-69
2023/09/21 07:29:23;;;;;;;8.32;3.25;;;;;;;;;;5065189;28;41967;-72
2023/09/21 07:31:51;;;;;;;6.28;2.42;;;;;;;;;;5066575;28;42270;-71
2023/09/21 07:34:19;;;;;;;7.40;2.50;;;;;;;;;;5062936;28;42471;-71
2023/09/21 07:36:48;;;;;;;10.00;2.55;;;;;;;;;;5062610;28;42154;-70
2023/09/21 07:39:17;;;;;;;19.20;3.40;;;;;;;;;;5065196;28;40144;-70
2023/09/21 07:41:46;;;;;;;20.70;3.90;;;;;;;;;;5065933;28;42940;-70
2023/09/21 07:44:16;;;;;;;13.63;2.88;;;;;;;;;;5065891;28;39952;-72
2023/09/21 07:46:45;;;;;;;9.20;3.30;;;;;;;;;;5065565;28;42637;-70
2023/09/21 07:49:14;;;;;;;12.23;2.70;;;;;;;;;;5063263;28;41947;-70
2023/09/21 07:51:42;;;;;;;17.77;3.60;;;;;;;;;;5064481;28;39292;-69
2023/09/21 07:54:12;;;;;;;14.07;3.22;;;;;;;;;;5066122;28;41527;-70
2023/09/21 07:56:41;;;;;;;11.43;2.92;;;;;;;;;;5064371;28;41896;-69
2023/09/21 07:59:10;;;;;;;17.88;3.80;;;;;;;;;;5067010;28;41187;-70
2023/09/21 08:01:40;;;;;;;12.27;3.38;;;;;;;;;;5064648;28;41801;-71
2023/09/21 08:04:08;;;;;;;12.75;3.33;;;;;;;;;;5066931;28;40512;-71
2023/09/21 08:06:36;;;;;;;18.92;3.50;;;;;;;;;;5063598;28;42576;-70
2023/09/21 08:09:04;;;;;;;16.10;4.05;;;;;;;;;;5064697;28;42695;-70
2023/09/21 08:11:47;;;;;;;16.27;3.25;;;;;;;;;;5061931;28;41687;-70
2023/09/21 08:14:15;;;;;;;11.23;3.17;;;;;;;;;;5059921;28;42789;-69
2023/09/21 08:16:43;;;;;;;10.65;3.20;;;;;;;;;;5052190;28;42665;-72
2023/09/21 08:19:11;;;;;;;14.90;3.47;;;;;;;;;;5064783;28;39925;-70
2023/09/21 08:21:39;;;;;;;14.40;2.90;;;;;;;;;;5063254;28;42332;-71
2023/09/21 08:24:09;;;;;;;15.23;2.83;;;;;;;;;;5063224;28;41808;-72
2023/09/21 08:26:37;;;;;;;7.50;2.35;;;;;;;;;;5063770;28;42182;-72
2023/09/21 08:29:07;;;;;;;11.82;2.95;;;;;;;;;;5064333;28;42902;-71
2023/09/21 08:31:35;;;;;;;17.83;3.40;;;;;;;;;;5059425;28;41182;-70
2023/09/21 08:34:03;;;;;;;14.02;2.97;;;;;;;;;;5065630;28;41190;-71
2023/09/21 08:36:31;;;;;;;8.57;3.15;;;;;;;;;;5064034;28;42788;-71
2023/09/21 08:39:02;;;;;;;7.35;2.58;;;;;;;;;;5064174;28;40101;-72
2023/09/21 08:41:30;;;;;;;8.98;2.78;;;;;;;;;;5064661;28;40069;-72
2023/09/21 08:43:58;;;;;;;8.02;2.20;;;;;;;;;;5063863;28;41722;-73
2023/09/21 08:46:28;;;;;;;11.00;2.47;;;;;;;;;;5057638;28;41586;-72
2023/09/21 08:48:58;;;;;;;6.80;2.53;;;;;;;;;;5062998;28;43656;-73
2023/09/21 08:51:28;;;;;;;8.95;2.40;;;;;;;;;;5061839;28;40416;-70
2023/09/21 08:53:59;;;;;;;5.50;2.70;;;;;;;;;;5059423;28;41748;-72
2023/09/21 08:56:27;;;;;;;14.10;2.83;;;;;;;;;;5062064;28;41951;-72
2023/09/21 08:58:56;;;;;;;8.50;2.40;;;;;;;;;;5063815;28;40687;-71
2023/09/21 09:01:24;;;;;;;6.97;2.30;;;;;;;;;;5064611;28;40235;-71
2023/09/21 09:03:53;;;;;;;4.50;2.03;;;;;;;;;;5065317;28;42305;-71
2023/09/21 09:06:21;;;;;;;6.72;2.42;;;;;;;;;;5066095;28;42127;-73
2023/09/21 09:08:49;;;;;;;7.60;2.67;;;;;;;;;;5063863;28;42073;-70
2023/09/21 09:11:34;;;;;;;8.30;2.53;;;;;;;;;;5062160;28;43611;-70
2023/09/21 09:14:02;;;;;;;6.38;2.28;;;;;;;;;;5063373;28;42720;-76
2023/09/21 09:16:30;;;;;;;5.90;2.35;;;;;;;;;;5064232;28;42996;-69
2023/09/21 09:19:00;;;;;;;5.25;2.63;;;;;;;;;;5066497;28;41297;-69
2023/09/21 09:21:29;;;;;;;7.57;2.60;;;;;;;;;;5064438;28;40933;-70
2023/09/21 09:23:57;;;;;;;4.57;2.60;;;;;;;;;;5056481;28;42880;-70
2023/09/21 09:26:25;;;;;;;8.13;2.90;;;;;;;;;;5059864;28;41813;-70
2023/09/21 09:28:53;;;;;;;7.20;2.72;;;;;;;;;;5068867;28;41684;-70
2023/09/21 09:31:21;;;;;;;7.22;2.60;;;;;;;;;;5069357;28;42019;-71
2023/09/21 09:33:50;;;;;;;6.07;2.35;;;;;;;;;;5061826;28;41852;-69
2023/09/21 09:36:21;;;;;;;32.90;3.97;;;;;;;;;;5068662;28;43133;-73
2023/09/21 09:38:50;;;;;;;13.55;3.20;;;;;;;;;;5064306;28;41308;-70
2023/09/21 09:41:18;;;;;;;30.67;4.90;;;;;;;;;;5068049;28;42650;-69
2023/09/21 09:43:46;;;;;;;10.63;3.38;;;;;;;;;;5066173;28;42331;-70
2023/09/21 09:46:14;;;;;;;16.13;3.42;;;;;;;;;;5068521;28;41281;-71
2023/09/21 09:48:43;;;;;;;15.05;2.85;;;;;;;;;;5066740;28;41647;-73
2023/09/21 09:51:12;;;;;;;12.80;2.70;;;;;;;;;;5068295;28;43219;-73
2023/09/21 09:53:41;;;;;;;10.52;3.22;;;;;;;;;;5067161;28;42854;-72
2023/09/21 09:56:10;;;;;;;8.88;3.35;;;;;;;;;;5066023;28;43071;-72
2023/09/21 09:58:40;;;;;;;14.02;3.13;;;;;;;;;;5067744;28;40177;-72
2023/09/21 10:01:09;;;;;;;5.70;2.60;;;;;;;;;;5060146;28;41661;-69
2023/09/21 10:03:38;;;;;;;8.23;2.78;;;;;;;;;;5067185;28;42699;-71
2023/09/21 10:06:08;;;;;;;5.18;2.25;;;;;;;;;;5067523;28;39412;-71
2023/09/21 10:08:38;;;;;;;10.32;2.40;;;;;;;;;;5065951;28;41157;-72
2023/09/21 10:11:08;;;;;;;7.95;2.60;;;;;;;;;;5059980;28;43282;-70
2023/09/21 10:13:35;;;;;;;7.63;2.67;;;;;;;;;;5063530;28;41222;-68
2023/09/21 10:16:05;;;;;;;6.70;2.20;;;;;;;;;;5066401;28;41471;-71
2023/09/21 10:18:36;;;;;;;7.70;2.63;;;;;;;;;;5067233;28;40440;-73
2023/09/21 10:21:23;;;;;;;9.38;2.72;;;;;;;;;;5068148;28;41885;-73
2023/09/21 10:24:02;;;;;;;4.13;2.30;;;;;;;;;;5063368;28;41986;-73
2023/09/21 10:26:35;;;;;;;6.60;2.20;;;;;;;;;;5068159;28;40831;-71
2023/09/21 10:29:04;;;;;;;4.45;2.13;;;;;;;;;;5063683;28;42337;-72
2023/09/21 10:31:32;;;;;;;8.35;2.30;;;;;;;;;;5067522;28;42130;-72
2023/09/21 10:34:11;;;;;;;10.07;2.40;;;;;;;;;;5067157;28;40944;-72
2023/09/21 10:36:42;;;;;;;10.88;2.70;;;;;;;;;;5063782;28;41969;-72
2023/09/21 10:39:24;;;;;;;9.57;2.45;;;;;;;;;;5061734;28;40264;-73
2023/09/21 10:41:55;;;;;;;4.15;2.53;;;;;;;;;;5064411;28;41974;-70
2023/09/21 10:44:42;;;;;;;9.32;2.85;;;;;;;;;;5068428;28;41708;-73
2023/09/21 10:47:11;;;;;;;8.80;2.10;;;;;;;;;;5065649;28;39307;-73
2023/09/21 10:49:39;;;;;;;9.75;2.63;;;;;;;;;;5067431;28;41512;-72
2023/09/21 10:52:08;;;;;;;8.02;2.40;;;;;;;;;;5068141;28;42339;-69
2023/09/21 10:54:36;;;;;;;12.45;2.75;;;;;;;;;;5068311;28;40233;-73
2023/09/21 10:57:05;;;;;;;10.13;2.33;;;;;;;;;;5067501;28;42145;-73
2023/09/21 10:59:34;;;;;;;14.32;2.53;;;;;;;;;;5068687;28;43074;-72
2023/09/21 11:02:02;;;;;;;15.82;2.63;;;;;;;;;;5067790;28;41216;-72
2023/09/21 11:04:31;;;;;;;8.35;2.65;;;;;;;;;;5067205;28;43169;-71
2023/09/21 11:06:59;;;;;;;8.80;3.00;;;;;;;;;;5068318;28;40628;-73
2023/09/21 11:09:27;;;;;;;11.43;2.50;;;;;;;;;;5067200;28;41671;-72
2023/09/21 11:11:56;;;;;;;11.73;2.95;;;;;;;;;;5063674;28;42459;-72
2023/09/21 11:14:26;;;;;;;7.82;2.90;;;;;;;;;;5057142;28;41376;-72
2023/09/21 11:16:54;;;;;;;8.82;2.97;;;;;;;;;;5062736;28;41306;-72
2023/09/21 11:19:23;;;;;;;9.50;2.60;;;;;;;;;;5064210;28;42629;-72
2023/09/21 11:21:51;;;;;;;9.15;2.47;;;;;;;;;;5066089;28;41512;-72
2023/09/21 11:24:19;;;;;;;6.00;2.42;;;;;;;;;;5066152;28;42352;-72
2023/09/21 11:26:49;;;;;;;12.07;2.63;;;;;;;;;;5065206;28;42197;-72
2023/09/21 11:29:17;;;;;;;6.53;2.38;;;;;;;;;;5066371;28;41785;-73
2023/09/21 11:31:47;;;;;;;6.20;2.40;;;;;;;;;;5065074;28;43163;-72
2023/09/21 11:34:16;;;;;;;11.95;2.63;;;;;;;;;;5066750;28;40008;-72
2023/09/21 11:36:44;;;;;;;4.93;2.22;;;;;;;;;;5065995;28;41660;-72
2023/09/21 11:39:12;;;;;;;5.97;2.42;;;;;;;;;;5066684;28;43169;-72
2023/09/21 11:41:40;;;;;;;4.10;2.10;;;;;;;;;;5065278;28;40122;-71
2023/09/21 11:44:08;;;;;;;9.68;2.10;;;;;;;;;;5065031;28;42599;-73
2023/09/21 11:46:36;;;;;;;7.45;2.42;;;;;;;;;;5066243;28;40276;-72
2023/09/21 11:49:05;;;;;;;5.07;2.42;;;;;;;;;;5064642;28;41924;-71
2023/09/21 11:51:33;;;;;;;9.07;2.90;;;;;;;;;;5064689;28;40296;-71
2023/09/21 11:54:04;;;;;;;10.10;2.40;;;;;;;;;;5064487;28;39222;-72
2023/09/21 11:56:32;;;;;;;5.43;2.42;;;;;;;;;;5064866;28;42111;-73
2023/09/21 11:59:06;;;;;;;7.93;2.53;;;;;;;;;;5064775;28;42100;-70
2023/09/21 12:01:35;;;;;;;5.10;2.50;;;;;;;;;;5063425;28;40192;-70
2023/09/21 12:04:08;;;;;;;7.25;2.60;;;;;;;;;;5065747;28;40710;-72
2023/09/21 12:06:38;;;;;;;5.95;2.70;;;;;;;;;;5064767;28;41192;-73
2023/09/21 12:09:07;;;;;;;4.00;2.58;;;;;;;;;;5066070;28;41295;-71
2023/09/21 12:11:35;;;;;;;5.20;2.67;;;;;;;;;;5064926;28;43256;-70
2023/09/21 12:14:08;;;;;;;6.78;2.50;;;;;;;;;;5054666;28;40870;-70
2023/09/21 12:16:36;;;;;;;7.25;3.13;;;;;;;;;;5065019;28;42345;-70
2023/09/21 12:19:05;;;;;;;4.35;2.47;;;;;;;;;;5065632;28;42416;-70
2023/09/21 12:21:33;;;;;;;3.83;2.53;;;;;;;;;;5063703;28;40522;-71
2023/09/21 12:24:03;;;;;;;6.65;2.75;;;;;;;;;;5065866;28;41767;-70
2023/09/21 12:26:33;;;;;;;10.27;2.75;;;;;;;;;;5061444;28;41537;-71
2023/09/21 12:29:01;;;;;;;19.02;2.95;;;;;;;;;;5064699;28;41822;-71
2023/09/21 12:31:29;;;;;;;8.82;2.78;;;;;;;;;;5065523;28;42204;-70
2023/09/21 12:34:16;;;;;;;9.85;2.88;;;;;;;;;;5062835;28;40300;-70
2023/09/21 12:36:48;;;;;;;16.30;3.05;;;;;;;;;;5062103;28;41528;-70
2023/09/21 12:39:18;;;;;;;15.02;2.92;;;;;;;;;;5065033;28;42087;-70
2023/09/21 12:41:47;;;;;;;12.45;2.42;;;;;;;;;;5063104;28;40158;-71
2023/09/21 12:44:15;;;;;;;10.82;2.55;;;;;;;;;;5063734;28;41469;-71
2023/09/21 12:46:43;;;;;;;15.50;2.92;;;;;;;;;;5064842;28;44461;-71
2023/09/21 12:49:11;;;;;;;8.32;2.40;;;;;;;;;;5065237;28;40403;-71
2023/09/21 12:51:39;;;;;;;21.40;2.95;;;;;;;;;;5064821;28;42542;-70
2023/09/21 12:54:07;;;;;;;7.05;2.25;;;;;;;;;;5065729;28;40555;-70
2023/09/21 12:56:37;;;;;;;6.20;2.25;;;;;;;;;;5064358;28;42003;-70
2023/09/21 12:59:05;;;;;;;8.05;2.10;;;;;;;;;;5065652;28;43086;-71
2023/09/21 13:01:33;;;;;;;5.85;1.95;;;;;;;;;;5067507;28;41197;-70
2023/09/21 13:04:03;;;;;;;3.03;2.20;;;;;;;;;;5069031;28;42075;-71
2023/09/21 13:06:31;;;;;;;11.85;2.35;;;;;;;;;;5068026;28;41880;-71
2023/09/21 13:09:01;;;;;;;3.35;2.05;;;;;;;;;;5069071;28;41171;-71
2023/09/21 13:11:29;;;;;;;10.55;2.58;;;;;;;;;;5067722;28;42012;-71
2023/09/21 13:14:00;;;;;;;7.82;2.55;;;;;;;;;;5066996;28;41416;-71
2023/09/21 13:16:28;;;;;;;8.30;2.35;;;;;;;;;;5066130;28;41860;-71
2023/09/21 13:18:56;;;;;;;5.30;2.00;;;;;;;;;;5067139;28;42533;-71
2023/09/21 13:21:25;;;;;;;5.68;2.25;;;;;;;;;;5068917;28;41997;-71
2023/09/21 13:23:53;;;;;;;9.63;2.33;;;;;;;;;;5067962;28;42969;-71
2023/09/21 13:26:24;;;;;;;4.53;1.88;;;;;;;;;;5065382;28;42031;-71
2023/09/21 13:28:52;;;;;;;8.73;1.88;;;;;;;;;;5067665;28;40278;-70
2023/09/21 13:31:24;;;;;;;8.82;1.88;;;;;;;;;;5068335;28;41519;-71
2023/09/21 13:33:53;;;;;;;8.65;1.67;;;;;;;;;;5064946;28;40907;-71
2023/09/21 13:36:23;;;;;;;13.65;1.92;;;;;;;;;;5067996;28;41721;-72
2023/09/21 13:38:51;;;;;;;4.70;1.55;;;;;;;;;;5068178;28;41971;-69
2023/09/21 13:41:19;;;;;;;5.72;1.55;;;;;;;;;;5067294;28;40761;-69
2023/09/21 13:43:47;;;;;;;6.53;1.30;;;;;;;;;;5055101;28;42634;-71
2023/09/21 13:46:16;;;;;;;3.40;1.30;;;;;;;;;;5067714;28;42347;-72
2023/09/21 13:48:46;;;;;;;2.47;1.20;;;;;;;;;;5068104;28;39818;-71
2023/09/21 13:51:16;;;;;;;4.68;1.00;;;;;;;;;;5061753;28;41734;-72
2023/09/21 13:53:44;;;;;;;42.63;4.55;;;;;;;;;;5067630;28;42977;-69
2023/09/21 13:56:13;;;;;;;18.63;2.97;;;;;;;;;;5063578;28;42082;-71
2023/09/21 13:58:41;;;;;;;6.10;1.17;;;;;;;;;;5067728;28;42641;-72
2023/09/21 14:01:09;;;;;;;11.43;1.60;;;;;;;;;;5066441;28;40311;-70
2023/09/21 14:03:38;;;;;;;7.85;1.10;;;;;;;;;;5069109;28;41456;-71
2023/09/21 14:06:07;;;;;;;4.90;0.80;;;;;;;;;;5067504;28;43201;-71
2023/09/21 14:08:35;;;;;;;5.13;0.70;;;;;;;;;;5066600;28;39956;-71
2023/09/21 14:11:03;;;;;;;4.60;0.85;;;;;;;;;;5067196;28;41146;-72
2023/09/21 14:13:31;;;;;;;7.18;1.20;;;;;;;;;;5064560;28;43108;-71
2023/09/21 14:15:59;;;;;;;2.65;1.15;;;;;;;;;;5068232;28;40392;-71
2023/09/21 14:18:28;;;;;;;3.15;0.93;;;;;;;;;;5067295;28;42668;-73
2023/09/21 14:20:56;;;;;;;5.20;1.15;;;;;;;;;;5066382;28;39742;-72
2023/09/21 14:23:25;;;;;;;6.43;0.98;;;;;;;;;;5067128;28;41946;-70
2023/09/21 14:25:53;;;;;;;13.48;1.60;;;;;;;;;;5067982;28;42087;-70
2023/09/21 14:28:23;;;;;;;6.28;1.13;;;;;;;;;;5066670;28;41541;-70
2023/09/21 14:30:52;;;;;;;4.65;1.00;;;;;;;;;;5066724;28;42501;-70
2023/09/21 14:33:20;;;;;;;5.22;1.05;;;;;;;;;;5064224;28;42269;-71
2023/09/21 14:35:49;;;;;;;4.28;1.00;;;;;;;;;;5064873;28;41402;-70
2023/09/21 14:38:18;;;;;;;2.03;0.85;;;;;;;;;;5068044;28;42566;-72
2023/09/21 14:40:47;;;;;;;3.35;0.88;;;;;;;;;;5066115;28;40863;-71
2023/09/21 14:43:15;;;;;;;5.65;0.98;;;;;;;;;;5066735;28;42096;-71
2023/09/21 14:45:43;;;;;;;6.55;0.90;;;;;;;;;;5066932;28;43265;-72
2023/09/21 14:48:12;;;;;;;7.32;1.10;;;;;;;;;;5065637;28;41247;-70
2023/09/21 14:50:40;;;;;;;15.63;1.02;;;;;;;;;;5063209;28;42296;-71
2023/09/21 14:53:08;;;;;;;8.35;1.45;;;;;;;;;;5065031;28;41715;-70